Time;durP1;ratioP1;P1;durP2;ratioP2;P2;SDS_P1;SDS_P2;PMS_P1;PMS_P2;Temp;Humidity;BMP_temperature;BMP_pressure;BME280_temperature;BME280_humidity;BME280_pressure;Samples;Min_cycle;Max_cycle;Signal;HPM_P1;HPM_P2
2022/07/18 00:01:28;;;;;;;27.42;5.40;;;19.80;99.90;;;;;;5033959;28;20232;-43
2022/07/18 00:03:54;;;;;;;29.08;5.75;;;19.80;99.90;;;;;;5033890;28;20195;-44
2022/07/18 00:06:19;;;;;;;24.60;4.85;;;19.80;99.90;;;;;;5033900;28;20215;-44
2022/07/18 00:08:45;;;;;;;18.75;4.55;;;19.80;99.90;;;;;;5033140;28;20306;-44
2022/07/18 00:11:11;;;;;;;21.48;5.00;;;19.80;99.90;;;;;;5033872;28;20172;-45
2022/07/18 00:13:36;;;;;;;22.17;4.45;;;19.70;99.90;;;;;;5033909;28;20160;-44
2022/07/18 00:16:03;;;;;;;17.25;4.05;;;19.60;99.90;;;;;;5033720;28;20554;-43
2022/07/18 00:18:28;;;;;;;23.70;3.78;;;19.50;99.90;;;;;;5033492;28;20250;-45
2022/07/18 00:20:54;;;;;;;12.27;3.72;;;19.40;99.90;;;;;;5033730;28;20294;-44
2022/07/18 00:23:20;;;;;;;14.93;3.65;;;19.40;99.90;;;;;;5033997;28;20175;-44
2022/07/18 00:25:45;;;;;;;14.60;3.25;;;19.50;99.90;;;;;;5033512;28;20171;-44
2022/07/18 00:28:11;;;;;;;14.88;3.15;;;19.40;99.90;;;;;;5033479;28;20198;-47
2022/07/18 00:30:38;;;;;;;13.68;3.50;;;19.30;99.90;;;;;;5033764;28;20233;-44
2022/07/18 00:33:04;;;;;;;6.97;2.70;;;19.30;99.90;;;;;;5033461;28;20691;-45
2022/07/18 00:35:29;;;;;;;7.15;3.13;;;19.20;99.90;;;;;;5033299;28;20171;-44
2022/07/18 00:37:55;;;;;;;8.02;2.92;;;19.20;99.90;;;;;;5033106;28;20226;-43
2022/07/18 00:40:21;;;;;;;9.20;3.65;;;19.10;99.90;;;;;;5033417;28;20217;-43
2022/07/18 00:42:46;;;;;;;8.82;2.72;;;19.20;99.90;;;;;;5033114;28;20252;-44
2022/07/18 00:45:12;;;;;;;8.45;2.80;;;19.20;99.90;;;;;;5033126;28;20168;-44
2022/07/18 00:47:37;;;;;;;8.00;2.70;;;19.20;99.90;;;;;;5033118;28;20178;-44
2022/07/18 00:50:05;;;;;;;9.95;2.72;;;19.30;99.90;;;;;;5033039;28;20246;-44
2022/07/18 00:52:31;;;;;;;8.27;3.00;;;19.20;99.90;;;;;;5033327;28;20183;-46
2022/07/18 00:54:57;;;;;;;10.60;2.92;;;19.20;99.90;;;;;;5032993;28;20167;-44
2022/07/18 00:57:22;;;;;;;6.22;2.65;;;19.20;99.90;;;;;;5033182;28;20175;-43
2022/07/18 01:02:33;;;;;;;7.03;2.47;;;19.30;99.90;;;;;;5032788;28;20579;-44
2022/07/18 01:04:58;;;;;;;6.60;2.40;;;19.20;99.90;;;;;;5032709;28;20167;-44
2022/07/18 01:07:24;;;;;;;7.13;2.38;;;19.20;99.90;;;;;;5031695;28;20218;-44
2022/07/18 01:09:49;;;;;;;7.97;2.22;;;19.20;99.90;;;;;;5032919;28;20170;-44
2022/07/18 01:12:16;;;;;;;4.15;2.40;;;19.10;99.90;;;;;;5032326;28;20541;-44
2022/07/18 01:14:42;;;;;;;8.68;2.42;;;19.10;99.90;;;;;;5032605;28;20159;-44
2022/07/18 01:17:15;;;;;;;6.18;2.95;;;19.10;99.90;;;;;;5032639;28;20175;-44
2022/07/18 01:19:41;;;;;;;5.05;2.20;;;19.00;99.90;;;;;;5032375;28;20674;-46
2022/07/18 01:22:07;;;;;;;6.63;2.65;;;18.90;99.90;;;;;;5030769;28;20659;-46
2022/07/18 01:24:32;;;;;;;4.88;2.40;;;18.80;99.90;;;;;;5032588;28;20255;-46
2022/07/18 01:26:58;;;;;;;11.90;2.45;;;18.70;99.90;;;;;;5032499;28;20175;-46
2022/07/18 01:29:23;;;;;;;6.15;2.15;;;18.70;99.90;;;;;;5032629;28;20556;-46
2022/07/18 01:31:49;;;;;;;9.35;2.30;;;18.50;99.90;;;;;;5032736;28;20171;-47
2022/07/18 01:34:19;;;;;;;6.35;2.88;;;18.40;99.90;;;;;;5032391;28;20160;-47
2022/07/18 01:36:45;;;;;;;6.40;2.50;;;18.50;99.90;;;;;;5032600;28;20592;-43
2022/07/18 01:39:11;;;;;;;6.47;2.45;;;18.60;99.90;;;;;;5031188;28;20187;-43
2022/07/18 01:41:36;;;;;;;7.72;2.15;;;18.70;99.90;;;;;;5031748;28;20293;-43
2022/07/18 01:44:02;;;;;;;6.45;2.97;;;18.50;99.90;;;;;;5032103;28;20166;-43
2022/07/18 01:46:28;;;;;;;5.60;2.35;;;18.40;99.90;;;;;;5032080;28;20241;-44
2022/07/18 01:48:54;;;;;;;3.83;2.25;;;18.40;99.90;;;;;;5032049;28;20159;-44
2022/07/18 01:51:19;;;;;;;4.65;2.53;;;18.50;99.90;;;;;;5032634;28;20686;-44
2022/07/18 01:53:54;;;;;;;5.97;2.60;;;18.50;99.90;;;;;;5032010;28;20629;-44
2022/07/18 01:56:20;;;;;;;4.38;2.40;;;18.30;99.90;;;;;;5032553;28;20167;-44
2022/07/18 01:58:45;;;;;;;7.53;2.33;;;18.30;99.90;;;;;;5032101;28;20573;-43
2022/07/18 02:01:11;;;;;;;2.85;1.95;;;18.50;99.90;;;;;;5031790;28;20198;-45
2022/07/18 02:03:36;;;;;;;6.68;2.42;;;18.50;99.90;;;;;;5031936;28;20178;-45
2022/07/18 02:06:02;;;;;;;6.93;2.53;;;18.60;99.90;;;;;;5031772;28;20680;-43
2022/07/18 02:08:28;;;;;;;10.43;2.55;;;18.60;99.90;;;;;;5031813;28;20175;-43
2022/07/18 02:10:53;;;;;;;6.38;2.10;;;18.60;99.90;;;;;;5031891;28;20197;-43
2022/07/18 02:13:20;;;;;;;4.50;2.30;;;18.60;99.90;;;;;;5032062;28;20159;-47
2022/07/18 02:15:45;;;;;;;8.18;2.33;;;18.60;99.90;;;;;;5032029;28;20178;-47
2022/07/18 02:18:11;;;;;;;9.25;2.45;;;18.50;99.90;;;;;;5033517;28;20167;-44
2022/07/18 02:20:38;;;;;;;7.07;2.42;;;18.40;99.90;;;;;;5035827;28;20171;-43
2022/07/18 02:23:04;;;;;;;4.93;2.25;;;18.30;99.90;;;;;;5035804;28;20273;-43
2022/07/18 02:25:30;;;;;;;7.00;2.55;;;18.20;99.90;;;;;;5035829;28;20164;-44
2022/07/18 02:27:55;;;;;;;8.77;2.20;;;18.10;99.90;;;;;;5035823;28;20687;-43
2022/07/18 02:30:21;;;;;;;4.50;2.35;;;18.10;99.90;;;;;;5036317;28;20175;-43
2022/07/18 02:32:47;;;;;;;3.67;2.10;;;18.10;99.90;;;;;;5035930;28;20258;-43
2022/07/18 02:35:13;;;;;;;5.55;2.05;;;18.10;99.90;;;;;;5035817;28;20541;-44
2022/07/18 02:37:40;;;;;;;4.40;2.22;;;18.00;99.90;;;;;;5035588;28;20669;-43
2022/07/18 02:40:10;;;;;;;5.60;2.33;;;18.00;99.90;;;;;;5035773;28;20186;-43
2022/07/18 02:42:37;;;;;;;5.32;2.45;;;17.80;99.90;;;;;;5035391;28;20206;-43
2022/07/18 02:45:04;;;;;;;6.97;2.40;;;17.80;99.90;;;;;;5035300;28;20159;-44
2022/07/18 02:47:30;;;;;;;5.60;2.58;;;17.80;99.90;;;;;;5035385;28;20509;-45
2022/07/18 02:49:55;;;;;;;4.22;2.20;;;17.70;99.90;;;;;;5035280;28;20166;-44
2022/07/18 02:52:21;;;;;;;5.65;2.75;;;17.70;99.90;;;;;;5035611;28;20176;-43
2022/07/18 02:54:47;;;;;;;4.95;2.42;;;17.70;99.90;;;;;;5035162;28;20601;-43
2022/07/18 02:57:12;;;;;;;3.45;1.90;;;17.80;99.90;;;;;;5035252;28;20186;-44
2022/07/18 02:59:38;;;;;;;5.80;2.38;;;17.80;99.90;;;;;;5035167;28;20167;-43
2022/07/18 03:02:04;;;;;;;6.03;2.20;;;17.70;99.90;;;;;;5035285;28;20593;-44
2022/07/18 03:04:30;;;;;;;4.97;2.28;;;17.70;99.90;;;;;;5035271;28;20499;-44
2022/07/18 03:06:56;;;;;;;5.57;2.20;;;17.60;99.90;;;;;;5034945;28;20692;-44
2022/07/18 03:09:22;;;;;;;5.75;2.13;;;17.60;99.90;;;;;;5035528;28;20258;-44
2022/07/18 03:11:48;;;;;;;5.80;2.50;;;17.60;99.90;;;;;;5035271;28;20633;-44
2022/07/18 03:14:14;;;;;;;6.60;2.40;;;17.60;99.90;;;;;;5034964;28;20167;-44
2022/07/18 03:16:39;;;;;;;7.75;2.70;;;17.60;99.90;;;;;;5034580;28;20178;-44
2022/07/18 03:19:05;;;;;;;8.25;2.60;;;17.60;99.90;;;;;;5034686;28;20171;-44
2022/07/18 03:21:31;;;;;;;6.13;2.60;;;17.60;99.90;;;;;;5034698;28;20242;-45
2022/07/18 03:23:56;;;;;;;4.90;1.95;;;17.60;99.90;;;;;;5034775;28;20533;-44
2022/07/18 03:26:22;;;;;;;7.43;2.45;;;17.50;99.90;;;;;;5035164;28;20168;-44
2022/07/18 03:28:48;;;;;;;6.68;2.72;;;17.60;99.90;;;;;;5034501;28;20704;-45
2022/07/18 03:31:14;;;;;;;4.78;2.45;;;17.60;99.90;;;;;;5034095;28;20176;-46
2022/07/18 03:33:39;;;;;;;4.57;2.20;;;17.60;99.90;;;;;;5034864;28;20171;-45
2022/07/18 03:36:05;;;;;;;6.10;2.28;;;17.60;99.90;;;;;;5034497;28;20550;-45
2022/07/18 03:38:31;;;;;;;9.15;2.50;;;17.70;99.90;;;;;;5034432;28;20231;-44
2022/07/18 03:40:56;;;;;;;7.47;2.20;;;17.60;99.90;;;;;;5034388;28;20191;-44
2022/07/18 03:43:22;;;;;;;10.55;2.75;;;17.60;99.90;;;;;;5033427;28;20186;-44
2022/07/18 03:45:47;;;;;;;4.80;2.60;;;17.60;99.90;;;;;;5034691;28;20171;-44
2022/07/18 03:48:13;;;;;;;8.88;2.53;;;17.70;99.90;;;;;;5034282;28;20250;-44
2022/07/18 03:50:39;;;;;;;5.43;2.40;;;17.70;99.90;;;;;;5034250;28;20250;-46
2022/07/18 03:53:05;;;;;;;4.40;2.50;;;17.60;99.90;;;;;;5034211;28;20601;-44
2022/07/18 03:55:30;;;;;;;6.93;2.40;;;17.60;99.90;;;;;;5034164;28;20227;-45
2022/07/18 03:57:56;;;;;;;4.68;2.42;;;17.60;99.90;;;;;;5034318;28;20258;-44
2022/07/18 04:00:21;;;;;;;7.80;2.38;;;17.60;99.90;;;;;;5034454;28;20533;-44
2022/07/18 04:02:48;;;;;;;3.75;2.40;;;17.70;99.90;;;;;;5034268;28;20285;-44
2022/07/18 04:05:14;;;;;;;6.35;2.67;;;17.60;99.90;;;;;;5033860;28;20170;-46
2022/07/18 04:07:41;;;;;;;6.43;2.53;;;17.60;99.90;;;;;;5033532;28;20227;-45
2022/07/18 04:10:08;;;;;;;6.15;2.13;;;17.60;99.90;;;;;;5033999;28;20167;-45
2022/07/18 04:12:34;;;;;;;4.00;2.42;;;17.50;99.90;;;;;;5033863;28;20163;-47
2022/07/18 04:15:00;;;;;;;5.38;2.60;;;17.60;99.90;;;;;;5034043;28;20543;-48
2022/07/18 04:17:26;;;;;;;9.93;3.08;;;17.60;99.90;;;;;;5033787;28;20169;-46
2022/07/18 04:19:52;;;;;;;6.65;2.63;;;17.60;99.90;;;;;;5034217;28;20248;-48
2022/07/18 04:22:17;;;;;;;5.00;2.53;;;17.70;99.90;;;;;;5033917;28;20257;-46
2022/07/18 04:24:43;;;;;;;4.72;2.35;;;17.70;99.90;;;;;;5033634;28;20171;-47
2022/07/18 04:27:09;;;;;;;10.60;3.10;;;17.70;99.90;;;;;;5033557;28;20690;-48
2022/07/18 04:29:36;;;;;;;10.63;2.75;;;17.70;99.90;;;;;;5033759;28;20171;-45
2022/07/18 04:32:02;;;;;;;5.75;3.03;;;17.70;99.90;;;;;;5033532;28;20168;-48
2022/07/18 04:34:28;;;;;;;8.65;3.25;;;17.80;99.90;;;;;;5033243;28;20170;-43
2022/07/18 04:36:53;;;;;;;10.32;3.13;;;17.80;99.90;;;;;;5033046;28;20164;-45
2022/07/18 04:39:19;;;;;;;3.58;2.67;;;17.90;99.90;;;;;;5033507;28;20198;-46
2022/07/18 04:41:44;;;;;;;5.43;2.55;;;18.00;99.90;;;;;;5032934;28;20559;-45
2022/07/18 04:44:10;;;;;;;7.93;2.60;;;18.10;99.90;;;;;;5033106;28;20183;-44
2022/07/18 04:46:36;;;;;;;4.05;2.13;;;18.30;99.90;;;;;;5033056;28;20213;-46
2022/07/18 04:49:02;;;;;;;9.27;2.80;;;18.30;99.90;;;;;;5032845;28;20571;-49
2022/07/18 04:51:27;;;;;;;11.43;2.50;;;18.30;99.90;;;;;;5032851;28;20170;-47
2022/07/18 04:53:54;;;;;;;10.48;2.95;;;18.50;99.90;;;;;;5032814;28;20648;-45
2022/07/18 04:56:21;;;;;;;9.80;3.08;;;18.50;99.90;;;;;;5033597;28;20259;-46
2022/07/18 04:58:47;;;;;;;4.00;2.72;;;18.50;99.90;;;;;;5032964;28;20190;-44
2022/07/18 05:01:12;;;;;;;4.88;2.65;;;18.70;99.90;;;;;;5032742;28;20668;-47
2022/07/18 05:03:38;;;;;;;4.90;2.92;;;18.80;99.90;;;;;;5032980;28;20218;-44
2022/07/18 05:06:03;;;;;;;5.15;2.75;;;19.00;99.90;;;;;;5032036;28;20250;-44
2022/07/18 05:08:29;;;;;;;5.95;2.92;;;19.10;99.90;;;;;;5032528;28;20167;-43
2022/07/18 05:10:55;;;;;;;9.90;2.70;;;19.20;99.90;;;;;;5032465;28;20167;-44
2022/07/18 05:13:20;;;;;;;5.88;3.00;;;19.30;99.90;;;;;;5033199;28;20641;-44
2022/07/18 05:15:46;;;;;;;5.32;2.88;;;19.40;99.90;;;;;;5032670;28;20170;-45
2022/07/18 05:18:11;;;;;;;5.72;2.85;;;19.50;99.90;;;;;;5032455;28;20650;-44
2022/07/18 05:20:37;;;;;;;7.40;3.15;;;19.60;99.90;;;;;;5032504;28;20167;-44
2022/07/18 05:23:03;;;;;;;5.97;2.65;;;19.90;99.90;;;;;;5032279;28;20365;-46
2022/07/18 05:25:28;;;;;;;16.48;3.05;;;19.90;99.90;;;;;;5032036;28;20225;-44
2022/07/18 05:27:54;;;;;;;6.80;3.35;;;19.80;99.90;;;;;;5032177;28;20229;-44
2022/07/18 05:30:21;;;;;;;5.72;2.60;;;19.80;99.90;;;;;;5032470;28;20163;-44
2022/07/18 05:32:47;;;;;;;9.55;2.85;;;19.90;99.90;;;;;;5032028;28;20217;-44
2022/07/18 05:35:13;;;;;;;5.53;3.17;;;19.80;99.90;;;;;;5032403;28;20532;-44
2022/07/18 05:37:39;;;;;;;5.70;2.60;;;19.90;99.90;;;;;;5032409;28;20175;-44
2022/07/18 05:40:08;;;;;;;7.18;3.08;;;19.90;99.90;;;;;;5032045;28;20182;-45
2022/07/18 05:42:33;;;;;;;3.88;2.72;;;20.00;99.90;;;;;;5031591;28;20280;-44
2022/07/18 05:44:59;;;;;;;4.68;2.40;;;20.00;99.90;;;;;;5031572;28;20677;-44
2022/07/18 05:47:25;;;;;;;7.68;2.80;;;19.90;99.90;;;;;;5031753;28;20305;-47
2022/07/18 05:49:50;;;;;;;7.72;2.55;;;19.90;99.90;;;;;;5032257;28;20163;-44
2022/07/18 05:52:16;;;;;;;2.63;2.40;;;19.90;99.90;;;;;;5031775;28;20510;-44
2022/07/18 05:54:42;;;;;;;4.97;2.75;;;20.00;99.90;;;;;;5031976;28;20632;-44
2022/07/18 05:57:07;;;;;;;8.18;3.00;;;20.20;99.90;;;;;;5031686;28;20184;-44
2022/07/18 05:59:33;;;;;;;6.43;2.75;;;20.30;99.90;;;;;;5031977;28;20643;-43
2022/07/18 06:01:58;;;;;;;4.03;2.22;;;20.30;99.90;;;;;;5031460;28;20249;-44
2022/07/18 06:04:24;;;;;;;4.15;2.45;;;20.50;99.90;;;;;;5031884;28;20578;-45
2022/07/18 06:06:50;;;;;;;5.78;2.67;;;20.50;99.90;;;;;;5031844;28;20246;-44
2022/07/18 06:09:17;;;;;;;6.82;2.53;;;20.60;99.90;;;;;;5032293;28;20167;-45
2022/07/18 06:11:42;;;;;;;6.45;3.00;;;20.50;99.90;;;;;;5031656;28;20177;-43
2022/07/18 06:14:08;;;;;;;3.35;2.28;;;20.60;99.90;;;;;;5031460;28;20258;-45
2022/07/18 06:16:34;;;;;;;4.57;2.58;;;20.60;99.90;;;;;;5031112;28;20202;-44
2022/07/18 06:19:00;;;;;;;8.45;2.92;;;20.70;99.90;;;;;;5031753;28;20159;-44
2022/07/18 06:21:26;;;;;;;10.80;3.00;;;20.80;99.90;;;;;;5031624;28;20249;-45
2022/07/18 06:23:51;;;;;;;5.55;2.38;;;20.80;99.90;;;;;;5031798;28;20167;-44
2022/07/18 06:26:17;;;;;;;7.13;2.83;;;20.80;99.90;;;;;;5031933;28;20175;-44
2022/07/18 06:28:42;;;;;;;8.32;2.65;;;20.90;99.90;;;;;;5031670;28;20172;-44
2022/07/18 06:31:08;;;;;;;6.40;2.60;;;21.10;99.90;;;;;;5031659;28;20186;-44
2022/07/18 06:33:34;;;;;;;6.40;2.63;;;21.20;99.90;;;;;;5031557;28;20166;-45
2022/07/18 06:35:59;;;;;;;7.95;3.15;;;21.30;99.90;;;;;;5031451;28;20250;-45
2022/07/18 06:38:25;;;;;;;9.27;3.10;;;21.40;99.90;;;;;;5031441;28;20222;-44
2022/07/18 06:40:51;;;;;;;6.53;2.80;;;21.50;99.90;;;;;;5031337;28;20258;-44
2022/07/18 06:43:19;;;;;;;11.32;3.03;;;21.70;99.90;;;;;;5031441;28;20187;-45
2022/07/18 06:45:48;;;;;;;8.75;2.67;;;21.80;99.90;;;;;;5031529;28;20254;-45
2022/07/18 06:48:15;;;;;;;9.55;3.03;;;21.90;99.90;;;;;;5031416;28;20536;-44
2022/07/18 06:50:41;;;;;;;7.65;2.95;;;21.90;99.90;;;;;;5031106;28;20222;-45
2022/07/18 06:53:07;;;;;;;9.45;2.83;;;22.00;99.90;;;;;;5031189;28;20167;-45
2022/07/18 06:55:32;;;;;;;5.55;2.40;;;22.00;99.90;;;;;;5031108;28;20242;-43
2022/07/18 06:57:58;;;;;;;9.95;2.70;;;22.00;99.90;;;;;;5031090;28;20206;-44
2022/07/18 07:00:24;;;;;;;6.10;3.30;;;22.20;99.90;;;;;;5031166;28;20171;-44
2022/07/18 07:02:50;;;;;;;5.55;2.72;;;22.40;99.90;;;;;;5031761;28;20207;-44
2022/07/18 07:05:17;;;;;;;6.43;2.45;;;22.50;99.90;;;;;;5034498;28;20629;-45
2022/07/18 07:07:44;;;;;;;5.07;2.67;;;22.70;99.90;;;;;;5034564;28;20226;-44
2022/07/18 07:10:10;;;;;;;7.25;2.65;;;22.70;99.90;;;;;;5034998;28;20202;-54
2022/07/18 07:12:40;;;;;;;5.75;2.55;;;22.90;99.90;;;;;;5035003;28;20207;-54
2022/07/18 07:15:08;;;;;;;6.72;2.28;;;22.90;99.90;;;;;;5034544;28;20183;-55
2022/07/18 07:17:34;;;;;;;10.98;2.95;;;23.00;99.90;;;;;;5034863;28;20163;-54
2022/07/18 07:19:59;;;;;;;6.63;2.80;;;23.00;99.90;;;;;;5034921;28;20175;-54
2022/07/18 07:22:25;;;;;;;10.48;2.67;;;23.10;99.90;;;;;;5034668;28;20206;-54
2022/07/18 07:24:51;;;;;;;5.03;2.75;;;23.10;99.90;;;;;;5043181;28;20170;-51
2022/07/18 07:27:16;;;;;;;7.65;2.35;;;23.20;99.90;;;;;;5053381;28;20205;-49
2022/07/18 07:29:42;;;;;;;10.25;2.90;;;23.40;99.90;;;;;;5053468;28;20224;-53
2022/07/18 07:32:08;;;;;;;7.40;2.17;;;23.50;99.90;;;;;;5053298;28;20253;-49
2022/07/18 07:34:33;;;;;;;12.52;2.72;;;23.50;99.90;;;;;;5053207;28;20238;-53
2022/07/18 07:36:59;;;;;;;5.13;2.13;;;23.60;99.90;;;;;;5053428;28;20189;-50
2022/07/18 07:39:25;;;;;;;6.90;2.38;;;23.80;99.90;;;;;;5053385;28;20701;-50
2022/07/18 07:41:50;;;;;;;8.48;2.67;;;23.90;99.90;;;;;;5052656;28;20556;-43
2022/07/18 07:44:16;;;;;;;8.05;2.88;;;24.10;99.90;;;;;;5052952;28;20185;-54
2022/07/18 07:46:41;;;;;;;11.77;2.50;;;24.10;99.90;;;;;;5052917;28;20174;-54
2022/07/18 07:49:07;;;;;;;6.55;1.95;;;24.40;99.90;;;;;;5052537;28;20177;-54
2022/07/18 07:51:33;;;;;;;4.90;1.90;;;24.60;99.90;;;;;;5052535;28;20198;-52
2022/07/18 07:53:58;;;;;;;4.47;2.15;;;24.80;99.90;;;;;;5053397;28;20175;-52
2022/07/18 07:56:24;;;;;;;8.27;2.55;;;24.80;99.90;;;;;;5053308;28;20179;-53
2022/07/18 07:58:49;;;;;;;5.63;2.45;;;24.90;99.90;;;;;;5053177;28;20270;-50
2022/07/18 08:01:17;;;;;;;10.23;2.30;;;25.00;99.90;;;;;;5053332;28;20190;-45
2022/07/18 08:03:44;;;;;;;7.70;2.35;;;25.20;99.90;;;;;;5053755;28;20665;-41
2022/07/18 08:06:10;;;;;;;7.82;2.30;;;25.30;99.90;;;;;;5053549;28;20212;-51
2022/07/18 08:08:36;;;;;;;6.63;2.10;;;25.30;99.90;;;;;;5053413;28;20558;-52
2022/07/18 08:11:02;;;;;;;7.22;2.55;;;25.30;99.90;;;;;;5053703;28;20170;-50
2022/07/18 08:13:27;;;;;;;6.85;2.25;;;25.30;99.90;;;;;;5053763;28;20162;-43
2022/07/18 08:15:53;;;;;;;9.23;2.70;;;25.50;99.90;;;;;;5053241;28;20179;-43
2022/07/18 08:18:18;;;;;;;6.47;2.40;;;25.70;99.90;;;;;;5053887;28;20749;-44
2022/07/18 08:20:44;;;;;;;5.53;1.92;;;25.70;99.90;;;;;;5053449;28;20177;-43
2022/07/18 08:23:11;;;;;;;11.27;2.40;;;26.00;99.90;;;;;;5053549;28;20179;-43
2022/07/18 08:25:42;;;;;;;6.07;2.80;;;26.10;99.90;;;;;;5053586;28;20242;-43
2022/07/18 08:28:08;;;;;;;5.57;2.33;;;26.20;99.90;;;;;;5053227;28;20177;-43
2022/07/18 08:30:34;;;;;;;10.10;2.40;;;26.20;99.90;;;;;;5052843;28;20166;-43
2022/07/18 08:33:01;;;;;;;6.30;2.50;;;26.40;99.90;;;;;;5053390;28;20158;-43
2022/07/18 08:35:27;;;;;;;6.40;2.65;;;26.40;99.90;;;;;;5053369;28;20170;-43
2022/07/18 08:37:53;;;;;;;9.63;2.50;;;26.60;99.90;;;;;;5053288;28;20167;-43
2022/07/18 08:40:19;;;;;;;11.93;2.75;;;26.50;99.90;;;;;;5053567;28;20177;-43
2022/07/18 08:42:44;;;;;;;11.50;2.20;;;26.70;99.90;;;;;;5053365;28;20667;-45
2022/07/18 08:45:10;;;;;;;6.97;2.10;;;26.80;99.90;;;;;;5052962;28;20162;-48
2022/07/18 08:47:36;;;;;;;8.57;2.42;;;26.90;99.90;;;;;;5053134;28;20170;-49
2022/07/18 08:50:03;;;;;;;5.55;2.20;;;27.00;99.90;;;;;;5052885;28;20166;-47
2022/07/18 08:52:29;;;;;;;5.82;2.60;;;27.20;99.90;;;;;;5051932;28;20582;-44
2022/07/18 08:54:56;;;;;;;6.15;2.20;;;27.20;99.90;;;;;;5053009;28;20269;-52
2022/07/18 08:57:22;;;;;;;8.00;2.22;;;27.40;99.90;;;;;;5053164;28;20167;-48
2022/07/18 08:59:49;;;;;;;9.80;2.20;;;27.60;99.90;;;;;;5052864;28;20200;-52
2022/07/18 09:02:14;;;;;;;13.43;2.55;;;27.50;99.90;;;;;;5052772;28;20213;-52
2022/07/18 09:04:44;;;;;;;9.45;2.33;;;27.70;99.70;;;;;;5052820;28;20178;-51
2022/07/18 09:07:22;;;;;;;8.15;2.28;;;27.80;99.90;;;;;;5052567;28;20707;-51
2022/07/18 09:09:53;;;;;;;7.82;2.33;;;28.00;99.60;;;;;;5053065;28;20174;-51
2022/07/18 09:12:20;;;;;;;10.27;2.28;;;28.00;99.40;;;;;;5052792;28;20212;-52
2022/07/18 09:14:46;;;;;;;6.85;2.25;;;28.00;97.50;;;;;;5053135;28;20176;-52
2022/07/18 09:17:14;;;;;;;10.13;2.30;;;28.20;97.90;;;;;;5052585;28;20630;-51
2022/07/18 09:20:02;;;;;;;6.82;2.35;;;28.40;97.20;;;;;;5052578;28;20648;-48
2022/07/18 09:22:36;;;;;;;5.40;2.13;;;28.60;97.70;;;;;;5051097;28;20213;-47
2022/07/18 09:25:10;;;;;;;8.00;2.15;;;28.60;95.90;;;;;;5052120;28;20158;-51
2022/07/18 09:27:43;;;;;;;5.95;2.25;;;28.80;96.00;;;;;;5051581;28;20257;-50
2022/07/18 09:30:24;;;;;;;12.32;2.17;;;28.90;95.30;;;;;;5052278;28;20242;-51
2022/07/18 09:33:07;;;;;;;5.13;2.03;;;28.80;93.00;;;;;;5052268;28;20185;-45
2022/07/18 09:35:35;;;;;;;4.10;1.80;;;29.00;92.40;;;;;;5052052;28;20178;-51
2022/07/18 09:38:07;;;;;;;6.32;2.42;;;29.10;91.70;;;;;;5051599;28;20205;-49
2022/07/18 09:40:59;;;;;;;6.13;2.45;;;29.10;90.80;;;;;;5043571;28;20167;-51
2022/07/18 09:43:27;;;;;;;3.65;1.88;;;29.20;90.50;;;;;;5029495;28;20335;-50
2022/07/18 09:45:54;;;;;;;4.50;1.83;;;29.20;88.20;;;;;;5031852;28;20178;-43
2022/07/18 09:48:21;;;;;;;6.22;2.20;;;29.30;88.10;;;;;;5039440;28;20216;-46
2022/07/18 09:50:55;;;;;;;9.65;2.15;;;29.40;85.50;;;;;;5038597;28;20179;-50
2022/07/18 09:53:29;;;;;;;3.80;1.85;;;29.60;88.40;;;;;;5031472;28;20167;-50
2022/07/18 09:56:25;;;;;;;7.75;2.45;;;29.70;82.70;;;;;;5031830;28;20166;-46
2022/07/18 09:58:53;;;;;;;5.95;2.40;;;29.70;83.40;;;;;;5029823;28;20179;-51
2022/07/18 10:01:19;;;;;;;6.28;2.10;;;29.90;85.00;;;;;;5031949;28;20199;-51
2022/07/18 10:03:45;;;;;;;6.28;2.50;;;30.10;82.00;;;;;;5031837;28;20273;-51
2022/07/18 10:06:12;;;;;;;6.70;2.03;;;30.20;79.70;;;;;;5031074;28;20226;-52
2022/07/18 10:08:38;;;;;;;6.30;2.08;;;30.30;75.50;;;;;;5031565;28;20274;-51
2022/07/18 10:11:06;;;;;;;7.45;2.42;;;30.30;73.60;;;;;;5031563;28;20646;-50
2022/07/18 10:13:33;;;;;;;4.22;2.40;;;30.40;74.40;;;;;;5030255;28;20523;-51
2022/07/18 10:16:00;;;;;;;2.53;1.75;;;30.30;69.30;;;;;;5031185;28;20175;-51
2022/07/18 10:18:29;;;;;;;6.05;2.17;;;30.50;67.90;;;;;;5031211;28;20213;-51
2022/07/18 10:21:10;;;;;;;4.72;2.03;;;30.60;69.30;;;;;;5031222;28;20625;-51
2022/07/18 10:23:41;;;;;;;3.28;1.90;;;30.60;66.90;;;;;;5031295;28;20265;-51
2022/07/18 10:26:18;;;;;;;2.60;1.70;;;30.70;66.30;;;;;;5031019;28;20173;-51
2022/07/18 10:28:56;;;;;;;3.63;2.20;;;30.80;65.60;;;;;;5031209;28;20178;-48
2022/07/18 10:31:23;;;;;;;4.90;2.15;;;30.90;65.70;;;;;;5031373;28;20628;-51
2022/07/18 10:33:49;;;;;;;7.75;2.45;;;30.90;65.50;;;;;;5031415;28;20170;-52
2022/07/18 10:36:17;;;;;;;2.40;1.90;;;31.10;63.90;;;;;;5031242;28;20163;-48
2022/07/18 10:39:23;;;;;;;4.65;1.70;;;31.10;65.10;;;;;;5032153;28;20261;-51
2022/07/18 10:41:52;;;;;;;3.33;1.83;;;31.40;63.20;;;;;;5020361;28;20249;-51
2022/07/18 10:44:28;;;;;;;4.38;1.83;;;31.30;60.60;;;;;;5035214;28;20178;-49
2022/07/18 10:47:03;;;;;;;3.88;1.65;;;31.30;61.30;;;;;;5035463;28;20178;-49
2022/07/18 10:49:58;;;;;;;3.70;1.60;;;31.40;61.30;;;;;;5035223;28;20676;-52
2022/07/18 10:52:29;;;;;;;2.15;1.85;;;31.80;62.20;;;;;;5034062;28;20186;-49
2022/07/18 10:55:08;;;;;;;3.03;1.63;;;32.00;63.20;;;;;;5035032;28;20173;-47
2022/07/18 10:57:39;;;;;;;2.03;1.52;;;32.00;62.50;;;;;;5033305;28;20178;-50
2022/07/18 11:00:16;;;;;;;3.05;1.98;;;32.10;60.10;;;;;;5035343;28;20170;-51
2022/07/18 11:02:47;;;;;;;6.00;2.13;;;32.00;61.10;;;;;;5035140;28;20619;-51
2022/07/18 11:05:24;;;;;;;4.40;1.98;;;31.90;60.60;;;;;;5035342;28;20643;-50
2022/07/18 11:07:59;;;;;;;3.40;1.58;;;31.70;58.50;;;;;;5034967;28;20210;-44
2022/07/18 11:10:44;;;;;;;2.72;1.85;;;32.00;61.30;;;;;;5035073;28;20190;-50
2022/07/18 11:13:24;;;;;;;4.95;1.70;;;31.70;59.00;;;;;;5034830;28;20170;-49
2022/07/18 11:16:13;;;;;;;3.95;2.00;;;31.60;59.60;;;;;;5034816;28;20167;-44
2022/07/18 11:18:39;;;;;;;6.82;1.85;;;32.00;61.50;;;;;;5035007;28;20202;-46
2022/07/18 11:21:29;;;;;;;6.47;2.10;;;32.10;63.20;;;;;;5034575;28;20531;-43
2022/07/18 11:24:01;;;;;;;5.43;2.05;;;32.20;59.30;;;;;;5042591;28;20170;-44
2022/07/18 11:26:28;;;;;;;4.57;2.10;;;31.70;58.50;;;;;;5054621;28;20174;-41
2022/07/18 11:29:14;;;;;;;6.00;2.28;;;31.60;59.70;;;;;;5055478;28;20163;-40
2022/07/18 11:31:59;;;;;;;2.60;1.90;;;31.90;59.60;;;;;;5054449;28;20166;-44
2022/07/18 11:34:25;;;;;;;7.88;2.15;;;31.90;59.70;;;;;;5054284;28;20252;-44
2022/07/18 11:36:51;;;;;;;3.05;2.00;;;32.20;60.90;;;;;;5054229;28;20623;-44
2022/07/18 11:39:31;;;;;;;6.30;1.92;;;32.10;57.90;;;;;;5054978;28;20174;-43
2022/07/18 11:41:57;;;;;;;5.50;2.10;;;32.20;58.60;;;;;;5053510;28;20224;-42
2022/07/18 11:44:28;;;;;;;5.72;1.90;;;32.50;59.00;;;;;;5054281;28;20590;-44
2022/07/18 11:47:11;;;;;;;3.60;1.77;;;32.80;59.30;;;;;;5054767;28;20166;-42
2022/07/18 11:49:38;;;;;;;5.43;2.08;;;32.60;59.70;;;;;;5054062;28;20631;-42
2022/07/18 11:52:05;;;;;;;6.20;2.30;;;32.70;57.40;;;;;;5053624;28;20277;-42
2022/07/18 11:54:32;;;;;;;9.60;2.40;;;32.50;58.10;;;;;;5053286;28;20170;-43
2022/07/18 11:57:00;;;;;;;12.75;2.33;;;32.70;58.80;;;;;;5054001;28;20161;-45
2022/07/18 11:59:41;;;;;;;3.28;2.00;;;32.70;58.80;;;;;;5054048;28;20165;-46
2022/07/18 12:02:09;;;;;;;3.55;2.25;;;32.60;58.10;;;;;;5053699;28;20674;-46
2022/07/18 12:04:34;;;;;;;5.45;2.08;;;32.80;59.20;;;;;;5054386;28;20170;-46
2022/07/18 12:07:21;;;;;;;5.65;2.13;;;33.00;57.70;;;;;;5052868;28;20575;-43
2022/07/18 12:09:50;;;;;;;6.43;2.03;;;33.30;58.70;;;;;;5054401;28;20174;-43
2022/07/18 12:12:18;;;;;;;5.97;2.00;;;33.40;57.80;;;;;;5054459;28;20177;-46
2022/07/18 12:14:55;;;;;;;6.63;2.03;;;33.10;57.60;;;;;;5054321;28;20174;-44
2022/07/18 12:17:21;;;;;;;5.80;2.42;;;33.20;57.80;;;;;;5053553;28;20189;-43
2022/07/18 12:19:47;;;;;;;6.03;2.30;;;33.30;56.90;;;;;;5053925;28;20177;-43
2022/07/18 12:22:13;;;;;;;7.45;2.22;;;33.40;57.20;;;;;;5052996;28;20683;-49
2022/07/18 12:24:53;;;;;;;8.80;2.20;;;33.60;57.50;;;;;;5053134;28;20521;-41
2022/07/18 12:27:30;;;;;;;9.07;2.20;;;33.80;58.30;;;;;;5054448;28;20209;-42
2022/07/18 12:30:03;;;;;;;4.32;2.03;;;33.80;58.00;;;;;;5053298;28;20170;-43
2022/07/18 12:32:47;;;;;;;11.75;2.30;;;33.50;57.20;;;;;;5053321;28;20174;-42
2022/07/18 12:35:17;;;;;;;8.98;2.10;;;33.40;57.20;;;;;;5053260;28;20162;-42
2022/07/18 12:37:55;;;;;;;7.60;2.35;;;33.30;56.80;;;;;;5053177;28;20162;-42
2022/07/18 12:40:22;;;;;;;7.95;2.05;;;33.40;57.30;;;;;;5052568;28;20162;-43
2022/07/18 12:42:47;;;;;;;4.00;2.20;;;33.50;57.60;;;;;;5053391;28;20255;-43
2022/07/18 12:45:14;;;;;;;5.65;2.03;;;33.60;57.30;;;;;;5053403;28;20174;-51
2022/07/18 12:47:40;;;;;;;5.72;2.33;;;33.70;58.10;;;;;;5053328;28;20249;-49
2022/07/18 12:50:07;;;;;;;5.97;2.15;;;33.70;57.40;;;;;;5051553;28;20251;-51
2022/07/18 12:52:34;;;;;;;9.77;2.03;;;33.90;57.00;;;;;;5053217;28;20166;-49